createdAt,value
2019-03-05T00:03:08.723Z,8.14
2019-03-05T00:09:22.846Z,8.15
2019-03-05T00:15:28.633Z,8.10
2019-03-05T00:21:35.384Z,8.04
2019-03-05T00:28:03.379Z,8.00
2019-03-05T00:35:01.158Z,8.03
2019-03-05T00:41:25.601Z,7.96
2019-03-05T00:48:11.449Z,7.96
2019-03-05T00:54:49.849Z,7.84
2019-03-05T01:01:50.916Z,7.80
2019-03-05T01:07:57.240Z,7.70
2019-03-05T01:14:03.110Z,7.69
2019-03-05T01:20:09.672Z,7.72
2019-03-05T01:26:15.689Z,7.73
2019-03-05T01:32:42.862Z,7.78
2019-03-05T01:39:04.475Z,7.82
2019-03-05T01:45:12.568Z,7.83
2019-03-05T01:51:18.351Z,7.83
2019-03-05T01:57:24.202Z,7.80
2019-03-05T02:03:29.966Z,7.81
2019-03-05T02:09:35.776Z,7.79
2019-03-05T02:15:41.700Z,7.77
2019-03-05T02:21:47.594Z,7.72
2019-03-05T02:28:38.764Z,7.61
2019-03-05T02:35:55.314Z,7.61
2019-03-05T02:42:49.991Z,7.47
2019-03-05T02:50:03.188Z,7.40
2019-03-05T02:57:10.132Z,7.38
2019-03-05T03:03:34.808Z,7.31
2019-03-05T03:10:18.855Z,7.17
2019-03-05T03:16:24.773Z,7.22
2019-03-05T03:22:30.518Z,7.19
2019-03-05T03:28:36.271Z,7.17
2019-03-05T03:34:42.390Z,7.02
2019-03-05T03:40:48.302Z,6.99
2019-03-05T03:46:54.323Z,7.05
2019-03-05T03:53:00.105Z,7.13
2019-03-05T03:59:07.934Z,7.14
2019-03-05T04:05:13.773Z,7.11
2019-03-05T04:11:19.690Z,7.11
2019-03-05T04:17:25.626Z,7.12
2019-03-05T04:23:31.844Z,7.09
2019-03-05T04:29:37.628Z,7.15
2019-03-05T04:35:43.610Z,7.14
2019-03-05T04:41:50.774Z,7.13
2019-03-05T04:47:56.684Z,7.11
2019-03-05T04:54:02.817Z,7.12
2019-03-05T05:00:14.096Z,7.07
2019-03-05T05:06:20.383Z,7.09
2019-03-05T05:12:26.645Z,7.11
2019-03-05T05:18:32.627Z,7.15
2019-03-05T05:24:38.372Z,7.16
2019-03-05T05:30:44.412Z,7.18
2019-03-05T05:36:50.388Z,7.21
2019-03-05T05:42:56.280Z,7.24
2019-03-05T05:49:02.005Z,7.32
2019-03-05T05:55:08.414Z,7.31
2019-03-05T06:01:14.164Z,7.34
2019-03-05T06:07:20.007Z,7.30
2019-03-05T06:13:25.763Z,7.31
2019-03-05T06:19:31.537Z,7.24
2019-03-05T06:25:37.540Z,7.22
2019-03-05T06:31:43.720Z,7.24
2019-03-05T06:37:49.944Z,7.19
2019-03-05T06:43:55.787Z,7.18
2019-03-05T06:50:02.100Z,7.12
2019-03-05T06:56:08.046Z,7.08
2019-03-05T07:02:13.753Z,7.01
2019-03-05T07:08:19.558Z,7.06
2019-03-05T07:14:37.142Z,7.11
2019-03-05T07:21:51.211Z,7.04
2019-03-05T07:27:59.794Z,7.01
2019-03-05T07:34:07.782Z,6.86
2019-03-05T07:40:33.934Z,6.80
2019-03-05T07:46:39.932Z,6.73
2019-03-05T07:52:45.979Z,6.73
2019-03-05T07:58:51.894Z,6.68
2019-03-05T08:04:58.778Z,6.76
2019-03-05T08:11:04.958Z,6.97
2019-03-05T08:17:10.748Z,7.00
2019-03-05T08:23:16.579Z,6.96
2019-03-05T08:29:22.721Z,6.85
2019-03-05T08:35:28.690Z,6.90
2019-03-05T08:41:34.802Z,6.87
2019-03-05T08:47:40.690Z,6.78
2019-03-05T08:53:49.797Z,6.84
2019-03-05T08:59:54.115Z,6.86
2019-03-05T09:06:00.110Z,6.92
2019-03-05T09:12:06.679Z,7.19
2019-03-05T09:18:12.473Z,7.39
2019-03-05T09:24:18.230Z,7.57
2019-03-05T09:30:23.947Z,7.74
2019-03-05T09:36:29.760Z,7.85
2019-03-05T09:42:39.945Z,7.75
2019-03-05T09:48:43.038Z,7.77
2019-03-05T09:54:49.002Z,7.88
2019-03-05T10:00:54.891Z,7.98
2019-03-05T10:07:00.720Z,8.11
2019-03-05T10:13:06.719Z,8.26
2019-03-05T10:19:12.585Z,8.36
2019-03-05T10:25:20.222Z,8.50
2019-03-05T10:31:25.963Z,8.55
2019-03-05T10:37:31.733Z,8.70
2019-03-05T10:43:37.528Z,8.77
2019-03-05T10:49:43.289Z,8.83
2019-03-05T10:55:49.293Z,9.04
2019-03-05T11:01:55.591Z,9.24
2019-03-05T11:08:01.453Z,9.29
2019-03-05T11:14:07.310Z,9.29
2019-03-05T11:20:13.546Z,9.32
2019-03-05T11:26:19.287Z,9.37
2019-03-05T11:32:25.134Z,9.75
2019-03-05T11:38:32.873Z,9.95
2019-03-05T11:44:38.613Z,10.06
2019-03-05T11:50:44.668Z,10.03
2019-03-05T11:56:50.578Z,10.13
2019-03-05T12:02:56.512Z,10.26
2019-03-05T12:09:02.392Z,9.81
2019-03-05T12:15:12.173Z,9.64
2019-03-05T12:21:17.938Z,9.65
2019-03-05T12:27:23.771Z,10.02
2019-03-05T12:33:29.994Z,10.03
2019-03-05T12:39:35.806Z,9.87
2019-03-05T12:45:41.610Z,9.75
2019-03-05T12:51:47.416Z,9.80
2019-03-05T12:57:53.446Z,9.85
2019-03-05T13:03:59.215Z,9.98
2019-03-05T13:10:05.266Z,10.04
2019-03-05T13:16:13.777Z,10.13
2019-03-05T13:22:18.838Z,10.55
2019-03-05T13:28:24.624Z,10.74
2019-03-05T13:34:30.660Z,10.69
2019-03-05T13:40:38.407Z,10.65
2019-03-05T13:46:45.151Z,10.78
2019-03-05T13:53:36.397Z,11.17
2019-03-05T13:59:49.863Z,11.16
2019-03-05T14:06:48.135Z,11.13
2019-03-05T14:12:54.136Z,11.49
2019-03-05T14:18:59.966Z,11.60
2019-03-05T14:25:07.296Z,11.24
2019-03-05T14:31:13.082Z,11.22
2019-03-05T14:37:18.977Z,11.32
2019-03-05T14:43:24.735Z,11.23
2019-03-05T14:49:30.443Z,11.36
2019-03-05T14:55:36.236Z,11.38
2019-03-05T15:01:42.057Z,11.42
2019-03-05T15:07:47.773Z,11.49
2019-03-05T15:13:53.726Z,11.77
2019-03-05T15:19:59.506Z,11.55
2019-03-05T15:26:05.390Z,11.46
2019-03-05T15:32:11.240Z,11.76
2019-03-05T15:38:17.075Z,12.11
2019-03-05T15:44:22.814Z,11.62
2019-03-05T15:50:28.695Z,11.45
2019-03-05T15:56:34.543Z,11.42
2019-03-05T16:02:40.639Z,11.41
2019-03-05T16:08:46.404Z,11.36
2019-03-05T16:14:52.130Z,11.40
2019-03-05T16:21:01.893Z,11.44
2019-03-05T16:27:05.412Z,11.35
2019-03-05T16:33:36.796Z,11.22
2019-03-05T16:40:01.133Z,11.09
2019-03-05T16:46:34.768Z,10.97
2019-03-05T16:52:59.506Z,10.87
2019-03-05T16:59:24.951Z,10.77
2019-03-05T17:05:52.424Z,10.69
2019-03-05T17:11:58.326Z,10.59
2019-03-05T17:18:04.107Z,10.47
2019-03-05T17:24:10.488Z,10.32
2019-03-05T17:30:17.250Z,10.17
2019-03-05T17:36:23.225Z,10.06
2019-03-05T17:42:29.847Z,9.95
2019-03-05T17:48:35.781Z,9.81
2019-03-05T17:54:41.563Z,9.70
2019-03-05T18:00:48.885Z,9.60
2019-03-05T18:06:54.605Z,9.47
2019-03-05T18:13:00.350Z,9.36
2019-03-05T18:19:06.273Z,9.24
2019-03-05T18:25:12.581Z,9.17
2019-03-05T18:31:18.299Z,9.20
2019-03-05T18:37:24.214Z,9.26
2019-03-05T18:43:29.999Z,9.25
2019-03-05T18:49:35.727Z,9.22
2019-03-05T18:55:41.989Z,9.12
2019-03-05T19:01:47.839Z,9.04
2019-03-05T19:07:53.723Z,8.97
2019-03-05T19:13:59.454Z,8.90
2019-03-05T19:20:06.620Z,8.82
2019-03-05T19:26:14.734Z,8.76
2019-03-05T19:32:20.512Z,8.69
2019-03-05T19:38:26.229Z,8.59
2019-03-05T19:44:32.174Z,8.51
2019-03-05T19:50:38.227Z,8.43
2019-03-05T19:56:44.291Z,8.37
2019-03-05T20:02:50.022Z,8.33
2019-03-05T20:08:56.362Z,8.30
2019-03-05T20:15:02.219Z,8.27
2019-03-05T20:21:09.931Z,8.20
2019-03-05T20:27:16.467Z,8.03
2019-03-05T20:33:22.509Z,7.94
2019-03-05T20:39:28.423Z,7.85
2019-03-05T20:45:39.774Z,7.74
2019-03-05T20:51:45.527Z,7.68
2019-03-05T20:57:51.504Z,7.66
2019-03-05T21:03:57.787Z,7.66
2019-03-05T21:10:03.979Z,7.60
2019-03-05T21:16:10.035Z,7.48
2019-03-05T21:22:16.100Z,7.46
2019-03-05T21:28:21.958Z,7.45
2019-03-05T21:34:28.116Z,7.40
2019-03-05T21:40:34.009Z,7.39
2019-03-05T21:46:40.795Z,7.36
2019-03-05T21:52:48.566Z,7.31
2019-03-05T21:58:54.535Z,7.24
2019-03-05T22:05:01.418Z,7.22
2019-03-05T22:11:07.934Z,7.22
2019-03-05T22:17:14.031Z,7.18
2019-03-05T22:23:20.054Z,7.19
2019-03-05T22:29:25.822Z,7.18
2019-03-05T22:35:31.627Z,7.23
2019-03-05T22:41:38.380Z,7.37
2019-03-05T22:47:44.350Z,7.51
2019-03-05T22:53:50.295Z,7.64
2019-03-05T22:59:56.210Z,7.74
2019-03-05T23:06:03.811Z,7.82
2019-03-05T23:12:09.907Z,7.88
2019-03-05T23:18:15.605Z,7.96
2019-03-05T23:24:21.966Z,7.93
2019-03-05T23:30:28.114Z,7.98
2019-03-05T23:36:34.230Z,7.94
2019-03-05T23:42:40.306Z,7.96
2019-03-05T23:48:59.792Z,8.04
2019-03-05T23:55:06.190Z,8.15
